sensor_id;sensor_type;location;lat;lon;timestamp;temperature;humidity
48860;DHT22;34679;51.436;-2.518;2023-03-23T00:02:28;9.00;99.90
48860;DHT22;34679;51.436;-2.518;2023-03-23T00:04:54;9.00;99.90
48860;DHT22;34679;51.436;-2.518;2023-03-23T00:07:22;9.00;99.90
48860;DHT22;34679;51.436;-2.518;2023-03-23T00:09:48;9.00;99.90
48860;DHT22;34679;51.436;-2.518;2023-03-23T00:12:27;9.00;99.90
48860;DHT22;34679;51.436;-2.518;2023-03-23T00:15:06;9.00;99.90
48860;DHT22;34679;51.436;-2.518;2023-03-23T00:17:34;9.00;99.90
48860;DHT22;34679;51.436;-2.518;2023-03-23T00:20:00;8.90;99.90
48860;DHT22;34679;51.436;-2.518;2023-03-23T00:22:30;8.90;99.90
48860;DHT22;34679;51.436;-2.518;2023-03-23T00:24:56;8.90;99.90
48860;DHT22;34679;51.436;-2.518;2023-03-23T00:27:22;8.80;99.90
48860;DHT22;34679;51.436;-2.518;2023-03-23T00:29:49;8.80;99.90
48860;DHT22;34679;51.436;-2.518;2023-03-23T00:32:19;8.90;99.90
48860;DHT22;34679;51.436;-2.518;2023-03-23T00:34:46;8.80;99.90
48860;DHT22;34679;51.436;-2.518;2023-03-23T00:37:14;8.90;99.90
48860;DHT22;34679;51.436;-2.518;2023-03-23T00:39:42;8.90;99.90
48860;DHT22;34679;51.436;-2.518;2023-03-23T00:42:11;8.90;99.90
48860;DHT22;34679;51.436;-2.518;2023-03-23T00:44:37;8.80;99.90
48860;DHT22;34679;51.436;-2.518;2023-03-23T00:47:05;8.80;99.90
48860;DHT22;34679;51.436;-2.518;2023-03-23T00:49:34;8.80;99.90
48860;DHT22;34679;51.436;-2.518;2023-03-23T00:52:03;8.70;99.90
48860;DHT22;34679;51.436;-2.518;2023-03-23T00:54:29;8.70;99.90
48860;DHT22;34679;51.436;-2.518;2023-03-23T00:56:55;8.70;99.90
48860;DHT22;34679;51.436;-2.518;2023-03-23T00:59:21;8.70;99.90
48860;DHT22;34679;51.436;-2.518;2023-03-23T01:01:47;8.70;99.90
48860;DHT22;34679;51.436;-2.518;2023-03-23T01:04:14;8.60;99.90
48860;DHT22;34679;51.436;-2.518;2023-03-23T01:06:41;8.60;99.90
48860;DHT22;34679;51.436;-2.518;2023-03-23T01:09:10;8.60;99.90
48860;DHT22;34679;51.436;-2.518;2023-03-23T01:11:36;8.50;99.90
48860;DHT22;34679;51.436;-2.518;2023-03-23T01:14:03;8.50;99.90
48860;DHT22;34679;51.436;-2.518;2023-03-23T01:16:29;8.40;99.90
48860;DHT22;34679;51.436;-2.518;2023-03-23T01:18:55;8.40;99.90
48860;DHT22;34679;51.436;-2.518;2023-03-23T01:21:21;8.30;99.90
48860;DHT22;34679;51.436;-2.518;2023-03-23T01:23:48;8.40;99.90
48860;DHT22;34679;51.436;-2.518;2023-03-23T01:26:16;8.30;99.90
48860;DHT22;34679;51.436;-2.518;2023-03-23T01:28:43;8.30;99.90
48860;DHT22;34679;51.436;-2.518;2023-03-23T01:31:11;8.20;99.90
48860;DHT22;34679;51.436;-2.518;2023-03-23T01:33:38;8.20;99.90
48860;DHT22;34679;51.436;-2.518;2023-03-23T01:36:06;8.10;99.90
48860;DHT22;34679;51.436;-2.518;2023-03-23T01:38:34;8.00;99.90
48860;DHT22;34679;51.436;-2.518;2023-03-23T01:41:01;8.00;99.90
48860;DHT22;34679;51.436;-2.518;2023-03-23T01:43:26;8.00;99.90
48860;DHT22;34679;51.436;-2.518;2023-03-23T01:45:52;8.00;99.90
48860;DHT22;34679;51.436;-2.518;2023-03-23T01:48:27;8.10;99.90
48860;DHT22;34679;51.436;-2.518;2023-03-23T01:53:21;8.00;99.90
48860;DHT22;34679;51.436;-2.518;2023-03-23T01:55:49;8.10;99.90
48860;DHT22;34679;51.436;-2.518;2023-03-23T01:58:24;8.10;99.90
48860;DHT22;34679;51.436;-2.518;2023-03-23T02:00:54;8.20;99.90
48860;DHT22;34679;51.436;-2.518;2023-03-23T02:03:21;8.10;99.90
48860;DHT22;34679;51.436;-2.518;2023-03-23T02:05:49;8.10;99.90
48860;DHT22;34679;51.436;-2.518;2023-03-23T02:08:15;8.10;99.90
48860;DHT22;34679;51.436;-2.518;2023-03-23T02:10:43;8.10;99.90
48860;DHT22;34679;51.436;-2.518;2023-03-23T02:13:11;8.10;99.90
48860;DHT22;34679;51.436;-2.518;2023-03-23T02:16:04;8.00;99.90
48860;DHT22;34679;51.436;-2.518;2023-03-23T02:27:01;8.00;99.90
48860;DHT22;34679;51.436;-2.518;2023-03-23T02:35:42;8.00;99.90
48860;DHT22;34679;51.436;-2.518;2023-03-23T02:38:15;7.90;99.90
48860;DHT22;34679;51.436;-2.518;2023-03-23T02:40:47;7.80;99.90
48860;DHT22;34679;51.436;-2.518;2023-03-23T02:43:20;7.80;99.90
48860;DHT22;34679;51.436;-2.518;2023-03-23T02:45:47;7.90;99.90
48860;DHT22;34679;51.436;-2.518;2023-03-23T02:48:18;7.80;99.90
48860;DHT22;34679;51.436;-2.518;2023-03-23T02:50:48;7.70;99.90
48860;DHT22;34679;51.436;-2.518;2023-03-23T02:53:19;7.70;99.90
48860;DHT22;34679;51.436;-2.518;2023-03-23T02:55:47;7.70;99.90
48860;DHT22;34679;51.436;-2.518;2023-03-23T02:58:14;7.70;99.90
48860;DHT22;34679;51.436;-2.518;2023-03-23T03:00:40;7.60;99.90
48860;DHT22;34679;51.436;-2.518;2023-03-23T03:03:12;7.70;99.90
48860;DHT22;34679;51.436;-2.518;2023-03-23T03:11:09;7.80;99.90
48860;DHT22;34679;51.436;-2.518;2023-03-23T03:13:59;7.80;99.90
48860;DHT22;34679;51.436;-2.518;2023-03-23T03:16:56;7.80;99.90
48860;DHT22;34679;51.436;-2.518;2023-03-23T03:21:49;7.90;99.90
48860;DHT22;34679;51.436;-2.518;2023-03-23T03:24:18;7.90;99.90
48860;DHT22;34679;51.436;-2.518;2023-03-23T03:26:47;7.90;99.90
48860;DHT22;34679;51.436;-2.518;2023-03-23T03:29:21;7.80;99.90
48860;DHT22;34679;51.436;-2.518;2023-03-23T03:31:49;7.80;99.90
48860;DHT22;34679;51.436;-2.518;2023-03-23T03:34:16;7.70;99.90
48860;DHT22;34679;51.436;-2.518;2023-03-23T03:36:45;7.60;99.90
48860;DHT22;34679;51.436;-2.518;2023-03-23T03:39:13;7.70;99.90
48860;DHT22;34679;51.436;-2.518;2023-03-23T03:41:41;7.70;99.90
48860;DHT22;34679;51.436;-2.518;2023-03-23T03:44:08;7.70;99.90
48860;DHT22;34679;51.436;-2.518;2023-03-23T03:46:35;7.70;99.90
48860;DHT22;34679;51.436;-2.518;2023-03-23T03:49:02;7.60;99.90
48860;DHT22;34679;51.436;-2.518;2023-03-23T03:51:29;7.50;99.90
48860;DHT22;34679;51.436;-2.518;2023-03-23T03:53:56;7.50;99.90
48860;DHT22;34679;51.436;-2.518;2023-03-23T03:56:23;7.50;99.90
48860;DHT22;34679;51.436;-2.518;2023-03-23T03:58:49;7.40;99.90
48860;DHT22;34679;51.436;-2.518;2023-03-23T04:01:16;7.40;99.90
48860;DHT22;34679;51.436;-2.518;2023-03-23T04:03:43;7.40;99.90
48860;DHT22;34679;51.436;-2.518;2023-03-23T04:06:09;7.40;99.90
48860;DHT22;34679;51.436;-2.518;2023-03-23T04:08:36;7.30;99.90
48860;DHT22;34679;51.436;-2.518;2023-03-23T04:11:03;7.30;99.90
48860;DHT22;34679;51.436;-2.518;2023-03-23T04:13:30;7.20;99.90
48860;DHT22;34679;51.436;-2.518;2023-03-23T04:15:55;7.30;99.90
48860;DHT22;34679;51.436;-2.518;2023-03-23T04:18:22;7.30;99.90
48860;DHT22;34679;51.436;-2.518;2023-03-23T04:20:50;7.20;99.90
48860;DHT22;34679;51.436;-2.518;2023-03-23T04:23:17;7.20;99.90
48860;DHT22;34679;51.436;-2.518;2023-03-23T04:25:49;7.20;99.90
48860;DHT22;34679;51.436;-2.518;2023-03-23T04:28:15;7.20;99.90
48860;DHT22;34679;51.436;-2.518;2023-03-23T04:30:44;7.20;99.90
48860;DHT22;34679;51.436;-2.518;2023-03-23T04:33:12;7.20;99.90
48860;DHT22;34679;51.436;-2.518;2023-03-23T04:35:42;7.20;99.90
48860;DHT22;34679;51.436;-2.518;2023-03-23T04:38:11;7.10;99.90
48860;DHT22;34679;51.436;-2.518;2023-03-23T04:40:41;7.00;99.90
48860;DHT22;34679;51.436;-2.518;2023-03-23T04:43:07;7.00;99.90
48860;DHT22;34679;51.436;-2.518;2023-03-23T04:45:34;7.00;99.90
48860;DHT22;34679;51.436;-2.518;2023-03-23T04:48:00;6.90;99.90
48860;DHT22;34679;51.436;-2.518;2023-03-23T04:50:29;6.90;99.90
48860;DHT22;34679;51.436;-2.518;2023-03-23T04:52:57;6.80;99.90
48860;DHT22;34679;51.436;-2.518;2023-03-23T04:55:25;6.80;99.90
48860;DHT22;34679;51.436;-2.518;2023-03-23T04:57:51;6.70;99.90
48860;DHT22;34679;51.436;-2.518;2023-03-23T05:00:17;6.80;99.90
48860;DHT22;34679;51.436;-2.518;2023-03-23T05:02:45;6.80;99.90
48860;DHT22;34679;51.436;-2.518;2023-03-23T05:05:13;6.80;99.90
48860;DHT22;34679;51.436;-2.518;2023-03-23T05:07:39;6.90;99.90
48860;DHT22;34679;51.436;-2.518;2023-03-23T05:10:07;6.80;99.90
48860;DHT22;34679;51.436;-2.518;2023-03-23T05:12:33;6.90;99.90
48860;DHT22;34679;51.436;-2.518;2023-03-23T05:14:59;6.90;99.90
48860;DHT22;34679;51.436;-2.518;2023-03-23T05:17:25;6.80;99.90
48860;DHT22;34679;51.436;-2.518;2023-03-23T05:19:51;6.90;99.90
48860;DHT22;34679;51.436;-2.518;2023-03-23T05:22:17;6.80;99.90
48860;DHT22;34679;51.436;-2.518;2023-03-23T05:24:43;6.80;99.90
48860;DHT22;34679;51.436;-2.518;2023-03-23T05:27:09;6.90;99.90
48860;DHT22;34679;51.436;-2.518;2023-03-23T05:29:36;7.00;99.90
48860;DHT22;34679;51.436;-2.518;2023-03-23T05:32:06;7.10;99.90
48860;DHT22;34679;51.436;-2.518;2023-03-23T05:34:33;7.10;99.90
48860;DHT22;34679;51.436;-2.518;2023-03-23T05:37:00;7.20;99.90
48860;DHT22;34679;51.436;-2.518;2023-03-23T05:39:26;7.20;99.90
48860;DHT22;34679;51.436;-2.518;2023-03-23T05:41:52;7.20;99.90
48860;DHT22;34679;51.436;-2.518;2023-03-23T05:44:18;7.30;99.90
48860;DHT22;34679;51.436;-2.518;2023-03-23T05:46:44;7.40;99.90
48860;DHT22;34679;51.436;-2.518;2023-03-23T05:49:10;7.40;99.90
48860;DHT22;34679;51.436;-2.518;2023-03-23T05:51:36;7.40;99.90
48860;DHT22;34679;51.436;-2.518;2023-03-23T05:54:02;7.40;99.90
48860;DHT22;34679;51.436;-2.518;2023-03-23T05:56:29;7.40;99.90
48860;DHT22;34679;51.436;-2.518;2023-03-23T05:58:57;7.50;99.90
48860;DHT22;34679;51.436;-2.518;2023-03-23T06:01:23;7.50;99.90
48860;DHT22;34679;51.436;-2.518;2023-03-23T06:03:49;7.60;99.90
48860;DHT22;34679;51.436;-2.518;2023-03-23T06:06:20;7.70;99.90
48860;DHT22;34679;51.436;-2.518;2023-03-23T06:08:46;7.80;99.90
48860;DHT22;34679;51.436;-2.518;2023-03-23T06:11:14;7.80;99.90
48860;DHT22;34679;51.436;-2.518;2023-03-23T06:13:40;7.90;99.90
48860;DHT22;34679;51.436;-2.518;2023-03-23T06:16:06;7.90;99.90
48860;DHT22;34679;51.436;-2.518;2023-03-23T06:18:31;7.90;99.90
48860;DHT22;34679;51.436;-2.518;2023-03-23T06:20:59;7.90;99.90
48860;DHT22;34679;51.436;-2.518;2023-03-23T06:23:26;8.00;99.90
48860;DHT22;34679;51.436;-2.518;2023-03-23T06:26:00;8.00;99.90
48860;DHT22;34679;51.436;-2.518;2023-03-23T06:28:27;8.10;99.90
48860;DHT22;34679;51.436;-2.518;2023-03-23T06:30:53;8.10;99.90
48860;DHT22;34679;51.436;-2.518;2023-03-23T06:33:19;8.20;99.90
48860;DHT22;34679;51.436;-2.518;2023-03-23T06:35:45;8.30;99.90
48860;DHT22;34679;51.436;-2.518;2023-03-23T06:38:11;8.50;99.90
48860;DHT22;34679;51.436;-2.518;2023-03-23T06:40:37;8.70;99.90
48860;DHT22;34679;51.436;-2.518;2023-03-23T06:43:03;9.00;99.90
48860;DHT22;34679;51.436;-2.518;2023-03-23T06:45:30;9.30;99.90
48860;DHT22;34679;51.436;-2.518;2023-03-23T06:47:56;9.70;99.90
48860;DHT22;34679;51.436;-2.518;2023-03-23T06:50:22;10.00;99.90
48860;DHT22;34679;51.436;-2.518;2023-03-23T06:52:49;10.50;99.90
48860;DHT22;34679;51.436;-2.518;2023-03-23T06:55:15;10.90;99.90
48860;DHT22;34679;51.436;-2.518;2023-03-23T06:57:41;11.30;99.90
48860;DHT22;34679;51.436;-2.518;2023-03-23T07:00:09;11.60;99.90
48860;DHT22;34679;51.436;-2.518;2023-03-23T07:02:38;11.90;99.90
48860;DHT22;34679;51.436;-2.518;2023-03-23T07:05:04;12.20;99.90
48860;DHT22;34679;51.436;-2.518;2023-03-23T07:07:30;12.40;99.90
48860;DHT22;34679;51.436;-2.518;2023-03-23T07:09:56;12.60;99.90
48860;DHT22;34679;51.436;-2.518;2023-03-23T07:12:22;12.90;99.90
48860;DHT22;34679;51.436;-2.518;2023-03-23T07:14:48;13.40;99.90
48860;DHT22;34679;51.436;-2.518;2023-03-23T07:17:14;13.50;99.90
48860;DHT22;34679;51.436;-2.518;2023-03-23T07:19:40;14.00;99.90
48860;DHT22;34679;51.436;-2.518;2023-03-23T07:22:07;14.20;99.90
48860;DHT22;34679;51.436;-2.518;2023-03-23T07:24:34;14.80;99.90
48860;DHT22;34679;51.436;-2.518;2023-03-23T07:27:00;15.10;99.90
48860;DHT22;34679;51.436;-2.518;2023-03-23T07:29:26;15.50;99.90
48860;DHT22;34679;51.436;-2.518;2023-03-23T07:31:52;15.90;99.90
48860;DHT22;34679;51.436;-2.518;2023-03-23T07:34:18;16.10;99.90
48860;DHT22;34679;51.436;-2.518;2023-03-23T07:36:45;16.40;99.90
48860;DHT22;34679;51.436;-2.518;2023-03-23T07:39:12;16.70;99.90
48860;DHT22;34679;51.436;-2.518;2023-03-23T07:41:38;17.00;99.90
48860;DHT22;34679;51.436;-2.518;2023-03-23T07:44:05;17.00;99.90
48860;DHT22;34679;51.436;-2.518;2023-03-23T07:46:32;16.80;99.90
48860;DHT22;34679;51.436;-2.518;2023-03-23T07:48:58;16.60;99.90
48860;DHT22;34679;51.436;-2.518;2023-03-23T07:51:24;16.30;99.90
48860;DHT22;34679;51.436;-2.518;2023-03-23T07:53:50;16.30;99.90
48860;DHT22;34679;51.436;-2.518;2023-03-23T07:56:17;16.30;99.90
48860;DHT22;34679;51.436;-2.518;2023-03-23T07:58:46;16.30;99.90
48860;DHT22;34679;51.436;-2.518;2023-03-23T08:01:12;16.50;99.90
48860;DHT22;34679;51.436;-2.518;2023-03-23T08:03:38;17.00;99.90
48860;DHT22;34679;51.436;-2.518;2023-03-23T08:06:04;17.00;99.90
48860;DHT22;34679;51.436;-2.518;2023-03-23T08:08:30;17.30;99.90
48860;DHT22;34679;51.436;-2.518;2023-03-23T08:10:57;17.80;99.90
48860;DHT22;34679;51.436;-2.518;2023-03-23T08:13:22;18.00;99.90
48860;DHT22;34679;51.436;-2.518;2023-03-23T08:15:48;18.10;99.90
48860;DHT22;34679;51.436;-2.518;2023-03-23T08:18:15;17.80;99.90
48860;DHT22;34679;51.436;-2.518;2023-03-23T08:20:41;18.10;99.90
48860;DHT22;34679;51.436;-2.518;2023-03-23T08:23:07;18.10;99.90
48860;DHT22;34679;51.436;-2.518;2023-03-23T08:25:33;18.00;99.90
48860;DHT22;34679;51.436;-2.518;2023-03-23T08:28:00;17.90;99.90
48860;DHT22;34679;51.436;-2.518;2023-03-23T08:30:29;17.70;99.90
48860;DHT22;34679;51.436;-2.518;2023-03-23T08:32:59;17.60;99.90
48860;DHT22;34679;51.436;-2.518;2023-03-23T08:35:26;17.70;99.90
48860;DHT22;34679;51.436;-2.518;2023-03-23T08:37:53;17.90;99.90
48860;DHT22;34679;51.436;-2.518;2023-03-23T08:40:22;17.40;99.90
48860;DHT22;34679;51.436;-2.518;2023-03-23T08:42:49;17.50;99.90
48860;DHT22;34679;51.436;-2.518;2023-03-23T08:45:18;17.40;99.90
48860;DHT22;34679;51.436;-2.518;2023-03-23T08:47:44;17.60;99.90
48860;DHT22;34679;51.436;-2.518;2023-03-23T08:50:14;18.00;99.90
48860;DHT22;34679;51.436;-2.518;2023-03-23T08:52:41;18.30;99.90
48860;DHT22;34679;51.436;-2.518;2023-03-23T08:55:07;18.20;99.90
48860;DHT22;34679;51.436;-2.518;2023-03-23T08:57:35;17.50;99.90
48860;DHT22;34679;51.436;-2.518;2023-03-23T09:00:05;16.80;99.90
48860;DHT22;34679;51.436;-2.518;2023-03-23T09:02:40;16.10;99.90
48860;DHT22;34679;51.436;-2.518;2023-03-23T09:05:06;15.60;99.90
48860;DHT22;34679;51.436;-2.518;2023-03-23T09:07:33;15.60;99.90
48860;DHT22;34679;51.436;-2.518;2023-03-23T09:09:58;15.70;99.90
48860;DHT22;34679;51.436;-2.518;2023-03-23T09:12:24;15.60;99.90
48860;DHT22;34679;51.436;-2.518;2023-03-23T09:14:50;15.90;99.90
48860;DHT22;34679;51.436;-2.518;2023-03-23T09:17:16;15.90;99.90
48860;DHT22;34679;51.436;-2.518;2023-03-23T09:19:41;16.30;99.90
48860;DHT22;34679;51.436;-2.518;2023-03-23T09:22:07;16.80;99.90
48860;DHT22;34679;51.436;-2.518;2023-03-23T09:24:33;17.80;99.90
48860;DHT22;34679;51.436;-2.518;2023-03-23T09:26:59;18.10;99.90
48860;DHT22;34679;51.436;-2.518;2023-03-23T09:29:26;18.80;99.90
48860;DHT22;34679;51.436;-2.518;2023-03-23T09:31:52;19.40;99.90
48860;DHT22;34679;51.436;-2.518;2023-03-23T09:34:18;18.80;99.90
48860;DHT22;34679;51.436;-2.518;2023-03-23T09:36:44;18.60;99.90
48860;DHT22;34679;51.436;-2.518;2023-03-23T09:39:11;18.30;99.90
48860;DHT22;34679;51.436;-2.518;2023-03-23T09:44:47;18.50;99.90
48860;DHT22;34679;51.436;-2.518;2023-03-23T09:49:59;18.50;99.90
48860;DHT22;34679;51.436;-2.518;2023-03-23T09:55:04;19.10;99.90
48860;DHT22;34679;51.436;-2.518;2023-03-23T09:57:44;18.70;99.90
48860;DHT22;34679;51.436;-2.518;2023-03-23T10:00:35;18.90;99.90
48860;DHT22;34679;51.436;-2.518;2023-03-23T10:03:17;18.80;99.90
48860;DHT22;34679;51.436;-2.518;2023-03-23T10:05:52;18.90;99.90
48860;DHT22;34679;51.436;-2.518;2023-03-23T10:08:24;18.70;99.90
48860;DHT22;34679;51.436;-2.518;2023-03-23T10:16:40;16.80;99.90
48860;DHT22;34679;51.436;-2.518;2023-03-23T10:19:33;16.40;99.90
48860;DHT22;34679;51.436;-2.518;2023-03-23T10:22:11;16.20;99.90
48860;DHT22;34679;51.436;-2.518;2023-03-23T10:27:43;16.30;99.90
48860;DHT22;34679;51.436;-2.518;2023-03-23T10:30:21;16.30;99.90
48860;DHT22;34679;51.436;-2.518;2023-03-23T10:32:58;16.30;99.90
48860;DHT22;34679;51.436;-2.518;2023-03-23T10:35:33;16.30;99.90
48860;DHT22;34679;51.436;-2.518;2023-03-23T10:38:13;16.30;99.90
48860;DHT22;34679;51.436;-2.518;2023-03-23T10:40:55;16.50;99.90
48860;DHT22;34679;51.436;-2.518;2023-03-23T10:43:23;16.60;99.90
48860;DHT22;34679;51.436;-2.518;2023-03-23T10:45:57;16.80;99.90
48860;DHT22;34679;51.436;-2.518;2023-03-23T10:48:50;16.60;99.90
48860;DHT22;34679;51.436;-2.518;2023-03-23T10:51:20;16.50;99.90
48860;DHT22;34679;51.436;-2.518;2023-03-23T10:53:56;16.50;99.90
48860;DHT22;34679;51.436;-2.518;2023-03-23T10:56:43;16.60;99.90
48860;DHT22;34679;51.436;-2.518;2023-03-23T11:01:53;16.40;99.90
48860;DHT22;34679;51.436;-2.518;2023-03-23T11:04:20;16.20;99.90
48860;DHT22;34679;51.436;-2.518;2023-03-23T11:06:49;15.90;99.90
48860;DHT22;34679;51.436;-2.518;2023-03-23T11:09:19;15.80;99.90
48860;DHT22;34679;51.436;-2.518;2023-03-23T11:11:55;15.50;99.90
48860;DHT22;34679;51.436;-2.518;2023-03-23T11:14:25;15.40;99.90
48860;DHT22;34679;51.436;-2.518;2023-03-23T11:16:53;15.40;99.90
48860;DHT22;34679;51.436;-2.518;2023-03-23T11:19:40;15.60;99.90
48860;DHT22;34679;51.436;-2.518;2023-03-23T11:22:08;15.70;99.90
48860;DHT22;34679;51.436;-2.518;2023-03-23T11:24:37;15.70;99.90
48860;DHT22;34679;51.436;-2.518;2023-03-23T11:27:07;15.70;99.90
48860;DHT22;34679;51.436;-2.518;2023-03-23T11:29:35;15.70;99.90
48860;DHT22;34679;51.436;-2.518;2023-03-23T11:32:09;15.50;99.90
48860;DHT22;34679;51.436;-2.518;2023-03-23T11:34:41;15.40;99.90
48860;DHT22;34679;51.436;-2.518;2023-03-23T11:37:33;15.30;99.90
48860;DHT22;34679;51.436;-2.518;2023-03-23T11:40:02;15.10;99.90
48860;DHT22;34679;51.436;-2.518;2023-03-23T11:42:37;15.10;99.90
48860;DHT22;34679;51.436;-2.518;2023-03-23T11:45:20;15.00;99.90
48860;DHT22;34679;51.436;-2.518;2023-03-23T11:50:57;15.50;99.90
48860;DHT22;34679;51.436;-2.518;2023-03-23T11:53:33;15.60;99.90
48860;DHT22;34679;51.436;-2.518;2023-03-23T11:58:42;15.70;99.90
48860;DHT22;34679;51.436;-2.518;2023-03-23T12:01:41;15.50;99.90
48860;DHT22;34679;51.436;-2.518;2023-03-23T12:15:12;15.30;99.90
48860;DHT22;34679;51.436;-2.518;2023-03-23T12:18:38;15.20;99.90
48860;DHT22;34679;51.436;-2.518;2023-03-23T12:27:07;15.80;99.90
48860;DHT22;34679;51.436;-2.518;2023-03-23T12:32:44;15.60;99.90
48860;DHT22;34679;51.436;-2.518;2023-03-23T12:43:37;15.80;99.90
48860;DHT22;34679;51.436;-2.518;2023-03-23T12:56:59;15.90;99.90
48860;DHT22;34679;51.436;-2.518;2023-03-23T13:02:03;15.60;99.90
48860;DHT22;34679;51.436;-2.518;2023-03-23T13:04:37;15.50;99.90
48860;DHT22;34679;51.436;-2.518;2023-03-23T13:07:09;15.30;99.90
48860;DHT22;34679;51.436;-2.518;2023-03-23T13:10:41;15.10;99.90
48860;DHT22;34679;51.436;-2.518;2023-03-23T13:12:48;15.20;99.90
48860;DHT22;34679;51.436;-2.518;2023-03-23T13:15:42;15.30;99.90
48860;DHT22;34679;51.436;-2.518;2023-03-23T13:21:04;15.30;99.90
48860;DHT22;34679;51.436;-2.518;2023-03-23T13:26:08;15.30;99.90
48860;DHT22;34679;51.436;-2.518;2023-03-23T13:31:23;15.50;99.90
48860;DHT22;34679;51.436;-2.518;2023-03-23T13:33:53;15.40;99.90
48860;DHT22;34679;51.436;-2.518;2023-03-23T13:36:31;15.30;99.90
48860;DHT22;34679;51.436;-2.518;2023-03-23T13:39:00;15.10;99.90
48860;DHT22;34679;51.436;-2.518;2023-03-23T13:41:26;14.80;99.90
48860;DHT22;34679;51.436;-2.518;2023-03-23T13:44:05;14.70;99.90
48860;DHT22;34679;51.436;-2.518;2023-03-23T13:46:31;14.50;99.90
48860;DHT22;34679;51.436;-2.518;2023-03-23T13:49:16;14.20;99.90
48860;DHT22;34679;51.436;-2.518;2023-03-23T13:54:38;13.80;99.90
48860;DHT22;34679;51.436;-2.518;2023-03-23T13:57:23;13.50;99.90
48860;DHT22;34679;51.436;-2.518;2023-03-23T13:59:56;13.40;99.90
48860;DHT22;34679;51.436;-2.518;2023-03-23T14:04:55;12.90;99.90
48860;DHT22;34679;51.436;-2.518;2023-03-23T14:07:21;12.80;99.90
48860;DHT22;34679;51.436;-2.518;2023-03-23T14:09:49;12.70;99.90
48860;DHT22;34679;51.436;-2.518;2023-03-23T14:12:26;12.60;99.90
48860;DHT22;34679;51.436;-2.518;2023-03-23T14:14:59;12.70;99.90
48860;DHT22;34679;51.436;-2.518;2023-03-23T14:17:29;12.70;99.90
48860;DHT22;34679;51.436;-2.518;2023-03-23T14:19:57;12.70;99.90
48860;DHT22;34679;51.436;-2.518;2023-03-23T14:22:41;12.70;99.90
48860;DHT22;34679;51.436;-2.518;2023-03-23T14:25:17;12.70;99.90
48860;DHT22;34679;51.436;-2.518;2023-03-23T14:27:44;12.70;99.90
48860;DHT22;34679;51.436;-2.518;2023-03-23T14:30:17;12.60;99.90
48860;DHT22;34679;51.436;-2.518;2023-03-23T14:32:44;12.40;99.90
48860;DHT22;34679;51.436;-2.518;2023-03-23T14:37:43;12.20;99.90
48860;DHT22;34679;51.436;-2.518;2023-03-23T14:40:15;12.10;99.90
48860;DHT22;34679;51.436;-2.518;2023-03-23T14:42:42;11.90;99.90
48860;DHT22;34679;51.436;-2.518;2023-03-23T14:45:15;11.80;99.90
48860;DHT22;34679;51.436;-2.518;2023-03-23T14:47:57;11.60;99.90
48860;DHT22;34679;51.436;-2.518;2023-03-23T14:50:30;11.50;99.90
48860;DHT22;34679;51.436;-2.518;2023-03-23T14:53:09;11.50;99.90
48860;DHT22;34679;51.436;-2.518;2023-03-23T14:55:35;11.50;99.90
48860;DHT22;34679;51.436;-2.518;2023-03-23T14:58:08;11.50;99.90
48860;DHT22;34679;51.436;-2.518;2023-03-23T15:00:40;11.50;99.90
48860;DHT22;34679;51.436;-2.518;2023-03-23T15:03:12;11.40;99.90
48860;DHT22;34679;51.436;-2.518;2023-03-23T15:05:43;11.50;99.90
48860;DHT22;34679;51.436;-2.518;2023-03-23T15:08:22;11.60;99.90
48860;DHT22;34679;51.436;-2.518;2023-03-23T15:13:45;11.50;99.90
48860;DHT22;34679;51.436;-2.518;2023-03-23T15:16:30;11.60;99.90
48860;DHT22;34679;51.436;-2.518;2023-03-23T15:18:59;11.60;99.90
48860;DHT22;34679;51.436;-2.518;2023-03-23T15:21:35;11.60;99.90
48860;DHT22;34679;51.436;-2.518;2023-03-23T15:24:03;11.60;99.90
48860;DHT22;34679;51.436;-2.518;2023-03-23T15:26:44;11.70;99.90
48860;DHT22;34679;51.436;-2.518;2023-03-23T15:31:44;11.60;99.90
48860;DHT22;34679;51.436;-2.518;2023-03-23T15:34:35;11.60;99.90
48860;DHT22;34679;51.436;-2.518;2023-03-23T15:37:06;11.60;99.90
48860;DHT22;34679;51.436;-2.518;2023-03-23T15:39:41;11.50;99.90
48860;DHT22;34679;51.436;-2.518;2023-03-23T15:42:25;11.60;99.90
48860;DHT22;34679;51.436;-2.518;2023-03-23T15:47:37;11.70;99.90
48860;DHT22;34679;51.436;-2.518;2023-03-23T15:50:11;11.80;99.90
48860;DHT22;34679;51.436;-2.518;2023-03-23T15:52:38;11.80;99.90
48860;DHT22;34679;51.436;-2.518;2023-03-23T15:57:48;11.80;99.90
48860;DHT22;34679;51.436;-2.518;2023-03-23T16:00:18;11.80;99.90
48860;DHT22;34679;51.436;-2.518;2023-03-23T16:02:46;11.80;99.90
48860;DHT22;34679;51.436;-2.518;2023-03-23T16:05:12;11.80;99.90
48860;DHT22;34679;51.436;-2.518;2023-03-23T16:07:38;11.80;99.90
48860;DHT22;34679;51.436;-2.518;2023-03-23T16:10:06;11.80;99.90
48860;DHT22;34679;51.436;-2.518;2023-03-23T16:12:32;11.70;99.90
48860;DHT22;34679;51.436;-2.518;2023-03-23T16:14:58;11.70;99.90
48860;DHT22;34679;51.436;-2.518;2023-03-23T16:17:24;11.70;99.90
48860;DHT22;34679;51.436;-2.518;2023-03-23T16:19:50;11.70;99.90
48860;DHT22;34679;51.436;-2.518;2023-03-23T16:22:16;11.60;99.90
48860;DHT22;34679;51.436;-2.518;2023-03-23T16:24:42;11.50;99.90
48860;DHT22;34679;51.436;-2.518;2023-03-23T16:27:11;11.50;99.90
48860;DHT22;34679;51.436;-2.518;2023-03-23T16:29:37;11.50;99.90
48860;DHT22;34679;51.436;-2.518;2023-03-23T16:32:03;11.50;99.90
48860;DHT22;34679;51.436;-2.518;2023-03-23T16:34:28;11.50;99.90
48860;DHT22;34679;51.436;-2.518;2023-03-23T16:36:58;11.50;99.90
48860;DHT22;34679;51.436;-2.518;2023-03-23T16:39:23;11.40;99.90
48860;DHT22;34679;51.436;-2.518;2023-03-23T16:41:49;11.40;99.90
48860;DHT22;34679;51.436;-2.518;2023-03-23T16:44:15;11.40;99.90
48860;DHT22;34679;51.436;-2.518;2023-03-23T16:46:41;11.40;99.90
48860;DHT22;34679;51.436;-2.518;2023-03-23T16:49:07;11.40;99.90
48860;DHT22;34679;51.436;-2.518;2023-03-23T16:51:32;11.40;99.90
48860;DHT22;34679;51.436;-2.518;2023-03-23T16:53:58;11.40;99.90
48860;DHT22;34679;51.436;-2.518;2023-03-23T16:56:24;11.40;99.90
48860;DHT22;34679;51.436;-2.518;2023-03-23T16:58:50;11.40;99.90
48860;DHT22;34679;51.436;-2.518;2023-03-23T17:01:16;11.40;99.90
48860;DHT22;34679;51.436;-2.518;2023-03-23T17:03:41;11.30;99.90
48860;DHT22;34679;51.436;-2.518;2023-03-23T17:06:07;11.30;99.90
48860;DHT22;34679;51.436;-2.518;2023-03-23T17:08:34;11.30;99.90
48860;DHT22;34679;51.436;-2.518;2023-03-23T17:11:00;11.30;99.90
48860;DHT22;34679;51.436;-2.518;2023-03-23T17:13:25;11.30;99.90
48860;DHT22;34679;51.436;-2.518;2023-03-23T17:15:54;11.30;99.90
48860;DHT22;34679;51.436;-2.518;2023-03-23T17:18:21;11.20;99.90
48860;DHT22;34679;51.436;-2.518;2023-03-23T17:20:47;11.20;99.90
48860;DHT22;34679;51.436;-2.518;2023-03-23T17:23:13;11.10;99.90
48860;DHT22;34679;51.436;-2.518;2023-03-23T17:25:39;10.90;99.90
48860;DHT22;34679;51.436;-2.518;2023-03-23T17:28:05;10.60;99.90
48860;DHT22;34679;51.436;-2.518;2023-03-23T17:30:31;10.40;99.90
48860;DHT22;34679;51.436;-2.518;2023-03-23T17:32:56;10.30;99.90
48860;DHT22;34679;51.436;-2.518;2023-03-23T17:35:22;10.20;99.90
48860;DHT22;34679;51.436;-2.518;2023-03-23T17:37:48;10.10;99.90